Terminal Aerodrome Forecast
Issued by NWS

Home | Current Version | Previous Version | Text Only | Print | Product List | Glossary On
Versions: 1 2 3 4 5 6 7 8 9 10 11 12 13 14 15 16 17 18 19
000
FTUS41 KPBZ 301120
TAFZZV
TAF
KZZV 301120Z 3012/0112 19003KT 2SM BR SCT004 OVC008
      TEMPO 3012/3014 1SM BR BKN004
     FM301400 21008KT P6SM BKN015
     FM301700 23010KT P6SM BKN025
     FM302000 22010G18KT P6SM VCTS BKN035CB
     FM010200 21005KT 5SM BR VCSH BKN100=

USA.gov is the U.S. government's official web portal to all federal, state and local government web resources and services.